createdAt,value
2022-09-12T00:01:25.458Z,16.20
2022-09-12T00:03:58.242Z,16.20
2022-09-12T00:06:26.472Z,16.10
2022-09-12T00:08:57.964Z,16.10
2022-09-12T00:11:25.985Z,16.10
2022-09-12T00:13:57.195Z,16.10
2022-09-12T00:16:26.568Z,16.00
2022-09-12T00:18:55.187Z,16.00
2022-09-12T00:21:22.695Z,16.00
2022-09-12T00:23:50.659Z,16.00
2022-09-12T00:26:18.620Z,15.90
2022-09-12T00:28:46.971Z,15.90
2022-09-12T00:31:17.184Z,16.00
2022-09-12T00:33:44.883Z,16.00
2022-09-12T00:36:14.936Z,16.00
2022-09-12T00:38:44.261Z,16.00
2022-09-12T00:41:17.153Z,16.10
2022-09-12T00:43:46.914Z,16.00
2022-09-12T00:46:56.749Z,16.10
2022-09-12T00:49:43.859Z,16.10
2022-09-12T00:52:17.060Z,16.20
2022-09-12T00:55:00.411Z,16.30
2022-09-12T00:57:32.662Z,16.40
2022-09-12T01:00:11.458Z,16.50
2022-09-12T01:02:38.540Z,16.60
2022-09-12T01:05:07.480Z,16.70
2022-09-12T01:07:40.092Z,16.80
2022-09-12T01:10:26.088Z,16.80
2022-09-12T01:12:52.953Z,16.90
2022-09-12T01:15:19.757Z,17.00
2022-09-12T01:17:52.737Z,17.10
2022-09-12T01:21:00.112Z,17.20
2022-09-12T01:23:31.188Z,17.30
2022-09-12T01:26:19.521Z,17.40
2022-09-12T01:29:00.175Z,17.40
2022-09-12T01:31:38.554Z,17.50
2022-09-12T01:34:20.708Z,17.50
2022-09-12T01:36:56.311Z,17.60
2022-09-12T01:39:29.009Z,17.60
2022-09-12T01:42:31.391Z,17.70
2022-09-12T01:45:26.111Z,17.70
2022-09-12T01:48:01.308Z,17.80
2022-09-12T01:51:07.459Z,17.90
2022-09-12T01:53:50.487Z,18.00
2022-09-12T01:56:26.810Z,18.10
2022-09-12T01:59:05.231Z,18.10
2022-09-12T02:01:35.609Z,18.10
2022-09-12T02:04:30.021Z,18.20
2022-09-12T02:07:07.549Z,18.20
2022-09-12T02:09:49.367Z,18.30
2022-09-12T02:12:20.276Z,18.30
2022-09-12T02:14:53.899Z,18.30
2022-09-12T02:17:24.159Z,18.40
2022-09-12T02:20:00.949Z,18.40
2022-09-12T02:22:31.727Z,18.50
2022-09-12T02:25:01.175Z,18.50
2022-09-12T02:27:32.752Z,18.50
2022-09-12T02:30:00.908Z,18.50
2022-09-12T02:32:42.492Z,18.50
2022-09-12T02:35:31.195Z,18.50
2022-09-12T02:38:06.422Z,18.50
2022-09-12T02:40:36.060Z,18.50
2022-09-12T02:43:05.494Z,18.40
2022-09-12T02:45:34.479Z,18.40
2022-09-12T02:48:24.571Z,18.30
2022-09-12T02:50:51.793Z,18.30
2022-09-12T02:53:19.063Z,18.20
2022-09-12T02:55:46.195Z,18.20
2022-09-12T02:58:21.156Z,18.10
2022-09-12T03:00:54.357Z,18.10
2022-09-12T03:03:25.944Z,18.00
2022-09-12T03:06:06.712Z,17.90
2022-09-12T03:09:03.122Z,17.90
2022-09-12T03:11:51.886Z,17.90
2022-09-12T03:14:30.774Z,17.90
2022-09-12T03:17:35.350Z,17.90
2022-09-12T03:20:35.631Z,17.90
2022-09-12T03:23:37.399Z,17.90
2022-09-12T03:26:17.034Z,17.90
2022-09-12T03:28:48.587Z,17.90
2022-09-12T03:31:19.717Z,17.90
2022-09-12T03:33:46.571Z,17.90
2022-09-12T03:36:19.557Z,17.90
2022-09-12T03:38:46.692Z,17.80
2022-09-12T03:41:13.602Z,17.80
2022-09-12T03:43:40.435Z,17.80
2022-09-12T03:46:07.483Z,17.70
2022-09-12T03:48:35.020Z,17.70
2022-09-12T03:51:09.575Z,17.70
2022-09-12T03:53:36.508Z,17.60
2022-09-12T03:56:09.140Z,17.60
2022-09-12T03:59:13.655Z,17.60
2022-09-12T04:01:41.932Z,17.50
2022-09-12T04:04:09.125Z,17.50
2022-09-12T04:06:35.959Z,17.50
2022-09-12T04:09:05.504Z,17.50
2022-09-12T04:11:32.305Z,17.50
2022-09-12T04:13:59.394Z,17.50
2022-09-12T04:16:26.306Z,17.50
2022-09-12T04:18:54.744Z,17.50
2022-09-12T04:21:22.215Z,17.50
2022-09-12T04:23:49.351Z,17.50
2022-09-12T04:26:22.460Z,17.50
2022-09-12T04:28:55.090Z,17.40
2022-09-12T04:31:23.467Z,17.40
2022-09-12T04:33:57.355Z,17.40
2022-09-12T04:36:25.621Z,17.40
2022-09-12T04:38:56.452Z,17.40
2022-09-12T04:41:26.433Z,17.40
2022-09-12T04:43:55.588Z,17.30
2022-09-12T04:46:22.575Z,17.30
2022-09-12T04:49:28.414Z,17.30
2022-09-12T04:51:55.497Z,17.30
2022-09-12T04:54:22.351Z,17.30
2022-09-12T04:56:50.417Z,17.30
2022-09-12T04:59:20.574Z,17.20
2022-09-12T05:01:48.425Z,17.20
2022-09-12T05:04:15.747Z,17.20
2022-09-12T05:06:43.336Z,17.20
2022-09-12T05:09:14.367Z,17.20
2022-09-12T05:14:31.433Z,17.20
2022-09-12T05:17:00.781Z,17.20
2022-09-12T05:19:28.715Z,17.20
2022-09-12T05:21:56.245Z,17.20
2022-09-12T05:24:23.119Z,17.20
2022-09-12T05:26:50.039Z,17.30
2022-09-12T05:29:16.900Z,17.30
2022-09-12T05:31:43.759Z,17.30
2022-09-12T05:34:11.328Z,17.30
2022-09-12T05:36:38.612Z,17.30
2022-09-12T05:39:06.068Z,17.40
2022-09-12T05:41:34.863Z,17.40
2022-09-12T05:44:06.914Z,17.40
2022-09-12T05:46:39.283Z,17.40
2022-09-12T05:49:25.842Z,17.50
2022-09-12T05:51:52.735Z,17.50
2022-09-12T05:54:20.704Z,17.50
2022-09-12T05:56:48.880Z,17.50
2022-09-12T05:59:20.180Z,17.60
2022-09-12T06:01:47.804Z,17.60
2022-09-12T06:04:15.243Z,17.70
2022-09-12T06:06:45.107Z,17.70
2022-09-12T06:09:15.292Z,17.70
2022-09-12T06:11:42.972Z,17.80
2022-09-12T06:14:12.252Z,17.80
2022-09-12T06:16:39.530Z,17.80
2022-09-12T06:19:15.044Z,17.90
2022-09-12T06:21:41.928Z,18.00
2022-09-12T06:24:08.821Z,18.10
2022-09-12T06:26:36.078Z,18.10
2022-09-12T06:29:05.519Z,18.20
2022-09-12T06:31:34.468Z,18.20
2022-09-12T06:34:04.796Z,18.30
2022-09-12T06:36:43.359Z,18.40
2022-09-12T06:39:23.142Z,18.50
2022-09-12T06:41:51.452Z,18.60
2022-09-12T06:44:22.708Z,18.80
2022-09-12T06:46:49.886Z,19.00
2022-09-12T06:49:17.812Z,19.20
2022-09-12T06:51:44.875Z,19.40
2022-09-12T06:54:17.146Z,19.60
2022-09-12T06:56:44.871Z,19.80
2022-09-12T06:59:13.047Z,19.90
2022-09-12T07:01:41.062Z,20.00
2022-09-12T07:04:08.480Z,20.00
2022-09-12T07:06:38.397Z,20.10
2022-09-12T07:09:07.948Z,20.10
2022-09-12T07:11:37.034Z,20.20
2022-09-12T07:14:05.662Z,20.20
2022-09-12T07:16:32.761Z,20.30
2022-09-12T07:19:19.660Z,20.30
2022-09-12T07:21:46.688Z,20.30
2022-09-12T07:24:13.756Z,20.40
2022-09-12T07:26:42.220Z,20.40
2022-09-12T07:29:36.067Z,20.50
2022-09-12T07:32:04.121Z,20.50
2022-09-12T07:34:31.004Z,20.60
2022-09-12T07:36:58.713Z,20.70
2022-09-12T07:39:26.000Z,20.70
2022-09-12T07:41:52.841Z,20.80
2022-09-12T07:44:19.647Z,20.80
2022-09-12T07:46:46.500Z,20.90
2022-09-12T07:49:13.648Z,20.90
2022-09-12T07:51:41.170Z,21.00
2022-09-12T07:54:09.313Z,21.00
2022-09-12T07:56:39.139Z,21.00
2022-09-12T07:59:10.240Z,21.10
2022-09-12T08:01:37.299Z,21.10
2022-09-12T08:04:05.174Z,21.20
2022-09-12T08:06:33.867Z,21.40
2022-09-12T08:09:05.206Z,21.50
2022-09-12T08:11:32.261Z,21.70
2022-09-12T08:14:00.042Z,21.90
2022-09-12T08:16:31.079Z,22.10
2022-09-12T08:19:00.527Z,22.20
2022-09-12T08:21:30.967Z,22.30
2022-09-12T08:24:02.904Z,22.40
2022-09-12T08:26:30.789Z,22.50
2022-09-12T08:28:57.936Z,22.60
2022-09-12T08:31:26.835Z,22.60
2022-09-12T08:33:56.688Z,22.70
2022-09-12T08:36:26.092Z,22.70
2022-09-12T08:39:00.222Z,22.70
2022-09-12T08:41:46.539Z,22.80
2022-09-12T08:44:39.323Z,23.00
2022-09-12T08:47:23.883Z,23.20
2022-09-12T08:50:10.204Z,23.40
2022-09-12T08:53:03.264Z,23.60
2022-09-12T08:55:39.023Z,23.70
2022-09-12T08:58:17.058Z,23.90
2022-09-12T09:01:07.403Z,24.00
2022-09-12T09:03:37.171Z,24.10
2022-09-12T09:06:23.186Z,24.20
2022-09-12T09:09:31.171Z,24.20
2022-09-12T09:11:57.966Z,24.30
2022-09-12T09:14:48.980Z,24.30
2022-09-12T09:17:40.648Z,24.30
2022-09-12T09:20:36.319Z,24.40
2022-09-12T09:23:21.423Z,24.60
2022-09-12T09:25:55.062Z,24.80
2022-09-12T09:28:48.144Z,25.00
2022-09-12T09:31:17.168Z,25.30
2022-09-12T09:33:46.479Z,25.50
2022-09-12T09:36:54.782Z,25.60
2022-09-12T09:39:58.101Z,25.80
2022-09-12T09:43:02.288Z,26.00
2022-09-12T09:45:29.820Z,26.20
2022-09-12T09:48:20.910Z,26.30
2022-09-12T09:50:49.447Z,26.20
2022-09-12T09:53:28.353Z,26.20
2022-09-12T09:56:00.284Z,26.20
2022-09-12T09:58:34.162Z,26.20
2022-09-12T10:01:15.700Z,26.30
2022-09-12T10:03:51.914Z,26.40
2022-09-12T10:06:35.302Z,26.40
2022-09-12T10:09:18.906Z,26.40
2022-09-12T10:11:47.280Z,26.50
2022-09-12T10:14:41.301Z,26.60
2022-09-12T10:17:33.219Z,26.80
2022-09-12T10:20:22.822Z,27.10
2022-09-12T10:22:51.035Z,27.30
2022-09-12T10:25:20.431Z,27.40
2022-09-12T10:27:58.364Z,27.50
2022-09-12T10:30:28.993Z,27.80
2022-09-12T10:33:08.313Z,28.10
2022-09-12T10:35:48.643Z,28.40
2022-09-12T10:38:31.268Z,28.60
2022-09-12T10:41:06.522Z,28.70
2022-09-12T10:43:33.567Z,28.70
2022-09-12T10:46:28.830Z,28.80
2022-09-12T10:49:30.289Z,29.00
2022-09-12T10:52:15.519Z,29.10
2022-09-12T10:54:43.327Z,29.10
2022-09-12T10:57:32.062Z,29.20
2022-09-12T11:00:25.852Z,29.40
2022-09-12T11:03:16.634Z,29.70
2022-09-12T11:06:00.797Z,30.10
2022-09-12T11:08:48.701Z,30.30
2022-09-12T11:11:41.020Z,30.30
2022-09-12T11:14:30.038Z,30.20
2022-09-12T11:17:05.463Z,30.00
2022-09-12T11:20:02.829Z,29.90
2022-09-12T11:22:48.546Z,29.90
2022-09-12T11:25:57.432Z,30.00
2022-09-12T11:28:56.453Z,29.90
2022-09-12T11:31:55.260Z,29.70
2022-09-12T11:34:58.247Z,29.60
2022-09-12T11:37:43.891Z,29.60
2022-09-12T11:40:31.853Z,29.80
2022-09-12T11:43:07.703Z,30.60
2022-09-12T11:45:43.107Z,31.20
2022-09-12T11:48:20.689Z,31.80
2022-09-12T11:50:47.533Z,32.30
2022-09-12T11:53:23.916Z,32.70
2022-09-12T11:56:06.220Z,32.90
2022-09-12T11:58:33.652Z,33.00
2022-09-12T12:01:11.443Z,33.10
2022-09-12T12:03:43.718Z,33.30
2022-09-12T12:06:34.116Z,33.40
2022-09-12T12:09:38.808Z,33.20
2022-09-12T12:12:11.535Z,32.80
2022-09-12T12:14:43.721Z,32.30
2022-09-12T12:17:22.203Z,32.00
2022-09-12T12:20:04.742Z,31.60
2022-09-12T12:22:32.812Z,31.30
2022-09-12T12:25:03.662Z,31.40
2022-09-12T12:28:01.782Z,32.10
2022-09-12T12:30:53.869Z,32.90
2022-09-12T12:33:20.733Z,33.70
2022-09-12T12:35:59.867Z,34.20
2022-09-12T12:38:40.885Z,34.80
2022-09-12T12:41:16.751Z,35.30
2022-09-12T12:43:44.268Z,35.80
2022-09-12T12:46:13.349Z,36.10
2022-09-12T12:49:19.731Z,36.50
2022-09-12T12:52:01.196Z,36.90
2022-09-12T12:54:52.654Z,37.10
2022-09-12T12:57:39.898Z,37.10
2022-09-12T13:00:44.580Z,37.30
2022-09-12T13:03:28.644Z,37.30
2022-09-12T13:06:05.407Z,37.50
2022-09-12T13:08:36.097Z,37.70
2022-09-12T13:11:05.347Z,37.80
2022-09-12T13:13:35.516Z,37.90
2022-09-12T13:16:02.572Z,38.00
2022-09-12T13:19:11.519Z,38.20
2022-09-12T13:21:55.082Z,38.50
2022-09-12T13:24:23.478Z,38.60
2022-09-12T13:26:50.401Z,38.90
2022-09-12T13:29:36.504Z,39.10
2022-09-12T13:32:03.747Z,39.30
2022-09-12T13:34:36.374Z,39.50
2022-09-12T13:37:22.003Z,39.50
2022-09-12T13:39:55.489Z,39.20
2022-09-12T13:42:28.347Z,39.10
2022-09-12T13:45:06.115Z,39.10
2022-09-12T13:47:58.742Z,39.20
2022-09-12T13:50:31.832Z,39.50
2022-09-12T13:53:07.008Z,39.50
2022-09-12T13:55:39.168Z,39.40
2022-09-12T13:58:21.594Z,39.00
2022-09-12T14:01:00.180Z,38.40
2022-09-12T14:03:49.366Z,38.20
2022-09-12T14:06:18.237Z,38.20
2022-09-12T14:08:47.976Z,38.10
2022-09-12T14:11:30.192Z,37.80
2022-09-12T14:13:58.303Z,37.70
2022-09-12T14:16:28.999Z,37.50
2022-09-12T14:19:00.078Z,37.50
2022-09-12T14:21:34.480Z,37.40
2022-09-12T14:24:04.767Z,37.10
2022-09-12T14:26:35.508Z,36.70
2022-09-12T14:29:42.045Z,36.20
2022-09-12T14:32:23.408Z,35.60
2022-09-12T14:35:12.212Z,35.30
2022-09-12T14:37:40.397Z,35.10
2022-09-12T14:40:22.286Z,34.90
2022-09-12T14:42:51.483Z,34.80
2022-09-12T14:45:28.827Z,34.80
2022-09-12T14:47:56.843Z,34.80
2022-09-12T14:50:26.486Z,34.90
2022-09-12T14:53:18.235Z,34.90
2022-09-12T14:56:07.070Z,35.10
2022-09-12T14:58:34.518Z,35.30
2022-09-12T15:01:21.280Z,35.40
2022-09-12T15:03:49.991Z,35.60
2022-09-12T15:06:23.216Z,35.60
2022-09-12T15:08:52.381Z,35.50
2022-09-12T15:11:19.174Z,35.20
2022-09-12T15:13:46.107Z,34.70
2022-09-12T15:16:13.342Z,34.20
2022-09-12T15:18:40.392Z,33.60
2022-09-12T15:21:11.480Z,33.10
2022-09-12T15:23:41.821Z,32.70
2022-09-12T15:26:13.197Z,32.40
2022-09-12T15:28:40.808Z,32.10
2022-09-12T15:31:30.485Z,32.00
2022-09-12T15:33:59.073Z,31.80
2022-09-12T15:36:26.423Z,31.60
2022-09-12T15:38:53.599Z,31.40
2022-09-12T15:41:31.228Z,31.40
2022-09-12T15:43:58.568Z,31.20
2022-09-12T15:46:25.448Z,31.00
2022-09-12T15:48:52.554Z,30.80
2022-09-12T15:51:21.491Z,30.60
2022-09-12T15:53:49.786Z,30.30
2022-09-12T15:56:18.895Z,30.10
2022-09-12T15:58:58.116Z,30.00
2022-09-12T16:01:26.522Z,29.90
2022-09-12T16:03:53.496Z,29.80
2022-09-12T16:06:20.347Z,29.70
2022-09-12T16:08:48.895Z,29.60
2022-09-12T16:11:23.740Z,29.50
2022-09-12T16:13:52.647Z,29.30
2022-09-12T16:16:19.771Z,29.20
2022-09-12T16:18:47.249Z,29.10
2022-09-12T16:21:15.687Z,29.10
2022-09-12T16:23:44.117Z,29.00
2022-09-12T16:26:11.404Z,28.90
2022-09-12T16:28:38.946Z,28.90
2022-09-12T16:31:07.694Z,28.90
2022-09-12T16:33:35.010Z,28.90
2022-09-12T16:36:04.847Z,28.80
2022-09-12T16:39:09.358Z,28.80
2022-09-12T16:41:36.200Z,28.70
2022-09-12T16:44:03.206Z,28.70
2022-09-12T16:46:30.266Z,28.70
2022-09-12T16:48:58.772Z,28.60
2022-09-12T16:51:32.968Z,28.60
2022-09-12T16:53:59.891Z,28.50
2022-09-12T16:56:26.835Z,28.40
2022-09-12T16:59:16.772Z,28.30
2022-09-12T17:01:45.247Z,28.10
2022-09-12T17:04:12.225Z,28.00
2022-09-12T17:06:39.090Z,27.90
2022-09-12T17:09:06.453Z,27.80
2022-09-12T17:11:38.382Z,27.70
2022-09-12T17:14:07.442Z,27.60
2022-09-12T17:16:36.688Z,27.50
2022-09-12T17:19:06.089Z,27.40
2022-09-12T17:21:33.356Z,27.30
2022-09-12T17:24:00.748Z,27.20
2022-09-12T17:26:27.609Z,27.00
2022-09-12T17:29:19.720Z,27.00
2022-09-12T17:31:46.690Z,26.80
2022-09-12T17:34:17.700Z,26.70
2022-09-12T17:36:45.586Z,26.60
2022-09-12T17:39:13.962Z,26.50
2022-09-12T17:41:47.147Z,26.40
2022-09-12T17:44:15.289Z,26.30
2022-09-12T17:46:42.997Z,26.30
2022-09-12T17:49:14.252Z,26.20
2022-09-12T17:51:41.843Z,26.10
2022-09-12T17:54:12.169Z,26.10
2022-09-12T17:56:39.707Z,25.90
2022-09-12T17:59:13.123Z,25.90
2022-09-12T18:01:58.677Z,25.80
2022-09-12T18:04:27.114Z,25.80
2022-09-12T18:06:54.165Z,25.70
2022-09-12T18:09:25.156Z,25.60
2022-09-12T18:11:53.198Z,25.60
2022-09-12T18:14:20.363Z,25.50
2022-09-12T18:16:49.619Z,25.40
2022-09-12T18:19:53.814Z,25.40
2022-09-12T18:22:21.168Z,25.20
2022-09-12T18:24:48.037Z,25.20
2022-09-12T18:27:14.853Z,25.10
2022-09-12T18:30:20.538Z,25.10
2022-09-12T18:32:48.196Z,25.00
2022-09-12T18:35:15.268Z,25.00
2022-09-12T18:37:42.318Z,24.90
2022-09-12T18:40:33.092Z,24.80
2022-09-12T18:43:00.585Z,24.70
2022-09-12T18:45:27.610Z,24.70
2022-09-12T18:47:55.300Z,24.60
2022-09-12T18:50:24.539Z,24.50
2022-09-12T18:52:59.096Z,24.50
2022-09-12T18:55:26.883Z,24.40
2022-09-12T18:57:55.521Z,24.30
2022-09-12T19:00:22.841Z,24.30
2022-09-12T19:02:49.669Z,24.20
2022-09-12T19:05:16.679Z,24.20
2022-09-12T19:07:43.569Z,24.10
2022-09-12T19:11:12.812Z,24.00
2022-09-12T19:13:41.784Z,23.90
2022-09-12T19:16:12.886Z,23.90
2022-09-12T19:19:40.482Z,23.90
2022-09-12T19:22:07.735Z,23.80
2022-09-12T19:24:35.314Z,23.80
2022-09-12T19:27:02.262Z,23.80
2022-09-12T19:29:29.527Z,23.70
2022-09-12T19:31:56.717Z,23.70
2022-09-12T19:34:23.857Z,23.70
2022-09-12T19:36:50.736Z,23.60
2022-09-12T19:39:19.748Z,23.60
2022-09-12T19:41:48.069Z,23.60
2022-09-12T19:44:15.159Z,23.50
2022-09-12T19:46:43.426Z,23.50
2022-09-12T19:49:14.712Z,23.50
2022-09-12T19:51:41.707Z,23.40
2022-09-12T19:54:09.101Z,23.40
2022-09-12T19:56:36.009Z,23.40
2022-09-12T19:59:03.057Z,23.30
2022-09-12T20:01:30.024Z,23.30
2022-09-12T20:03:58.678Z,23.30
2022-09-12T20:06:26.871Z,23.20
2022-09-12T20:08:55.420Z,23.20
2022-09-12T20:11:24.047Z,23.10
2022-09-12T20:13:51.988Z,23.10
2022-09-12T20:16:23.133Z,23.10
2022-09-12T20:19:10.252Z,23.00
2022-09-12T20:21:37.349Z,23.00
2022-09-12T20:24:10.969Z,23.00
2022-09-12T20:26:38.510Z,22.90
2022-09-12T20:29:10.555Z,22.90
2022-09-12T20:31:39.657Z,22.90
2022-09-12T20:34:07.471Z,22.90
2022-09-12T20:36:34.482Z,22.90
2022-09-12T20:39:04.863Z,22.80
2022-09-12T20:41:34.185Z,22.80
2022-09-12T20:44:01.820Z,22.70
2022-09-12T20:46:29.022Z,22.70
2022-09-12T20:49:15.636Z,22.70
2022-09-12T20:51:42.933Z,22.60
2022-09-12T20:54:10.892Z,22.60
2022-09-12T20:56:38.105Z,22.50
2022-09-12T20:59:11.535Z,22.40
2022-09-12T21:01:38.895Z,22.30
2022-09-12T21:04:05.768Z,22.20
2022-09-12T21:06:32.708Z,22.20
2022-09-12T21:09:00.908Z,22.20
2022-09-12T21:11:29.030Z,22.10
2022-09-12T21:13:56.094Z,22.00
2022-09-12T21:16:23.643Z,22.00
2022-09-12T21:18:59.427Z,22.00
2022-09-12T21:21:26.927Z,21.90
2022-09-12T21:23:57.366Z,21.90
2022-09-12T21:26:24.444Z,21.90
2022-09-12T21:28:53.519Z,21.80
2022-09-12T21:31:20.508Z,21.80
2022-09-12T21:33:47.465Z,21.70
2022-09-12T21:36:14.484Z,21.70
2022-09-12T21:38:45.491Z,21.70
2022-09-12T21:41:14.721Z,21.60
2022-09-12T21:43:41.880Z,21.60
2022-09-12T21:46:09.801Z,21.60
2022-09-12T21:48:37.492Z,21.60
2022-09-12T21:51:04.888Z,21.60
2022-09-12T21:53:32.180Z,21.60
2022-09-12T21:56:07.757Z,21.50
2022-09-12T21:59:01.398Z,21.50
2022-09-12T22:01:28.257Z,21.50
2022-09-12T22:03:55.158Z,21.50
2022-09-12T22:06:22.715Z,21.40
2022-09-12T22:08:50.709Z,21.40
2022-09-12T22:11:20.586Z,21.40
2022-09-12T22:13:47.434Z,21.40
2022-09-12T22:16:14.297Z,21.40
2022-09-12T22:18:43.220Z,21.40
2022-09-12T22:21:14.956Z,21.30
2022-09-12T22:24:00.212Z,21.30
2022-09-12T22:26:27.526Z,21.30
2022-09-12T22:28:54.819Z,21.30
2022-09-12T22:31:22.402Z,21.30
2022-09-12T22:33:50.867Z,21.20
2022-09-12T22:36:18.243Z,21.20
2022-09-12T22:39:07.974Z,21.20
2022-09-12T22:41:34.843Z,21.10
2022-09-12T22:44:01.937Z,21.20
2022-09-12T22:46:30.031Z,21.10
2022-09-12T22:48:58.214Z,21.10
2022-09-12T22:51:25.433Z,21.10
2022-09-12T22:53:52.429Z,21.10
2022-09-12T22:56:19.245Z,21.10
2022-09-12T22:59:06.387Z,21.10
2022-09-12T23:01:34.410Z,21.00
2022-09-12T23:04:05.415Z,21.00
2022-09-12T23:06:32.311Z,21.00
2022-09-12T23:13:20.233Z,20.80
2022-09-12T23:15:47.138Z,20.80
2022-09-12T23:18:13.960Z,20.70
2022-09-12T23:21:34.014Z,20.60
2022-09-12T23:24:01.092Z,20.60
2022-09-12T23:26:28.349Z,20.50
2022-09-12T23:29:14.287Z,20.40
2022-09-12T23:31:41.678Z,20.40
2022-09-12T23:34:10.256Z,20.40
2022-09-12T23:36:37.287Z,20.30
2022-09-12T23:39:04.978Z,20.30
2022-09-12T23:41:31.838Z,20.30
2022-09-12T23:43:58.960Z,20.30
2022-09-12T23:46:25.949Z,20.30
2022-09-12T23:49:31.676Z,20.30
2022-09-12T23:51:58.615Z,20.30
2022-09-12T23:54:25.508Z,20.40
2022-09-12T23:56:52.471Z,20.40
2022-09-12T23:59:24.432Z,20.40
